»·PEaware :: N838KL KMRY-L52

N838KL :: KMRY-L52

FLIGHT INFORMATION

Flight Status: Arrived
Operator: Privately registered:
United States
More flights under this callsign
Pilot: Maurice C. (12314)
Aircraft: Unknown
(KODI)
More flights by this aircraft type
Origin: KMRY Monterey Peninsula
United States
Destination: L52 Oceano Co
United States
More flights between these airports :: More routes between these airports
Route: +
File this flight plan on PilotEdge
Remarks: FF
Altitude:
(Current/Filed)
7,500ft
Speed:
(Current/Filed)
0kts
Departed: 21-Dec-17 10:43 AM
Arrived: 21-Dec-17 11:30 AM
Distance/Time
Traveled:
107nm/0:47
Distance/Time
To Go:
Arrived

Flight Plot

Page will automatically refresh every two minutes.

Flight plan parsing failed; only flown route is shown


Map Options




Map Legend


Flown Route
Filed Route
Departure Airport
Arrival Airport
Navaid (VOR, NDB)
Fix

Horizontal Profiles

Position Reports

Time Latitude Longitude Heading Altitude Ground
Speed
21-Dec-17 10:29 36.588766 -121.855776 345 171ft 0kts
21-Dec-17 10:30 36.588766 -121.855776 345 171ft 0kts
21-Dec-17 10:31 36.588766 -121.855776 345 171ft 0kts
21-Dec-17 10:32 36.588828 -121.855797 345 171ft 0kts
21-Dec-17 10:33 36.589515 -121.855991 357 171ft 0kts
21-Dec-17 10:34 36.589515 -121.855991 357 171ft 0kts
21-Dec-17 10:35 36.589518 -121.855990 357 171ft 0kts
21-Dec-17 10:38 36.588766 -121.855776 345 171ft 0kts
21-Dec-17 10:39 36.588766 -121.855776 345 171ft 0kts
21-Dec-17 10:40 36.588767 -121.855777 345 171ft 0kts
21-Dec-17 10:41 36.588767 -121.855777 345 171ft 0kts
21-Dec-17 10:42 36.588767 -121.855777 345 171ft 0kts
21-Dec-17 10:43 36.588767 -121.855777 345 171ft 0kts
21-Dec-17 10:44 36.589459 -121.854593 100 171ft 23kts
21-Dec-17 10:45 36.586207 -121.844925 111 171ft 29kts
21-Dec-17 10:46 36.583065 -121.835672 115 171ft 18kts
21-Dec-17 10:47 36.582834 -121.834837 95 171ft 0kts
21-Dec-17 10:48 36.583249 -121.833669 348 171ft 14kts
21-Dec-17 10:49 36.592225 -121.857697 302 908ft 112kts
21-Dec-17 10:50 36.609052 -121.897844 289 2301ft 132kts
21-Dec-17 10:51 36.611551 -121.938240 232 4037ft 134kts
21-Dec-17 10:52 36.576916 -121.960421 197 5313ft 170kts
21-Dec-17 10:53 36.530856 -121.966987 166 6581ft 169kts
21-Dec-17 10:54 36.482750 -121.957322 186 7122ft 189kts
21-Dec-17 10:55 36.429617 -121.964625 183 7343ft 191kts
21-Dec-17 10:56 36.379783 -121.967448 176 7326ft 174kts
21-Dec-17 10:57 36.329194 -121.964722 171 7328ft 190kts
21-Dec-17 10:58 36.276999 -121.952775 165 7326ft 191kts
21-Dec-17 10:59 36.225301 -121.938241 164 7326ft 191kts
21-Dec-17 11:00 36.177179 -121.911959 145 7170ft 190kts
21-Dec-17 11:01 36.134767 -121.872204 134 7210ft 192kts
21-Dec-17 11:02 36.094985 -121.827482 135 7225ft 193kts
21-Dec-17 11:03 36.055230 -121.782760 134 7224ft 194kts
21-Dec-17 11:04 36.015379 -121.738005 135 7265ft 192kts
21-Dec-17 11:05 35.977275 -121.695277 134 7169ft 175kts
21-Dec-17 11:06 35.941732 -121.655613 134 7170ft 167kts
21-Dec-17 11:07 35.909321 -121.619632 135 7170ft 153kts
21-Dec-17 11:08 35.877221 -121.584050 135 7169ft 158kts
21-Dec-17 11:09 35.847104 -121.550532 135 7169ft 158kts
21-Dec-17 11:10 35.814413 -121.514139 134 7169ft 159kts
21-Dec-17 11:11 35.785653 -121.482132 133 7171ft 173kts
21-Dec-17 11:12 35.743647 -121.435032 134 7170ft 175kts
21-Dec-17 11:13 35.707719 -121.394896 135 7169ft 175kts
21-Dec-17 11:14 35.677589 -121.361380 134 7170ft 175kts
21-Dec-17 11:15 35.644145 -121.324203 136 7170ft 162kts
21-Dec-17 11:16 35.616452 -121.293274 134 7170ft 160kts
21-Dec-17 11:17 35.583722 -121.256994 134 7217ft 159kts
21-Dec-17 11:18 35.550619 -121.220312 134 7216ft 160kts
21-Dec-17 11:19 35.517629 -121.183690 134 7217ft 160kts
21-Dec-17 11:20 35.483044 -121.144986 135 6678ft 173kts
21-Dec-17 11:21 35.447257 -121.104987 135 6095ft 173kts
21-Dec-17 11:22 35.412240 -121.065885 135 5591ft 165kts
21-Dec-17 11:23 35.378754 -121.028642 134 5092ft 162kts
21-Dec-17 11:24 35.345621 -120.991699 135 4595ft 161kts
21-Dec-17 11:25 35.312586 -120.955035 134 4097ft 160kts
21-Dec-17 11:26 35.281053 -120.919990 134 3621ft 159kts
21-Dec-17 11:27 35.248849 -120.884365 134 3213ft 154kts
21-Dec-17 11:28 35.217546 -120.849821 134 2997ft 156kts
21-Dec-17 11:29 35.186963 -120.811923 125 2505ft 157kts
21-Dec-17 11:30 35.160853 -120.769180 121 2008ft 156kts
21-Dec-17 11:31 35.137876 -120.728494 116 1834ft 113kts
21-Dec-17 11:32 35.124752 -120.698278 112 1268ft 91kts
21-Dec-17 11:33 35.115072 -120.669590 92 1041ft 84kts
21-Dec-17 11:34 35.112143 -120.644921 105 518ft 74kts
21-Dec-17 11:35 35.102652 -120.624225 121 19ft 57kts
21-Dec-17 11:36 35.100779 -120.621844 304 19ft 24kts
21-Dec-17 11:37 35.102284 -120.624741 303 19ft 0kts
21-Dec-17 11:38 35.102760 -120.625627 307 19ft 8kts
21-Dec-17 11:39 35.103468 -120.624701 210 19ft 0kts
21-Dec-17 11:40 35.103468 -120.624701 210 19ft 0kts
21-Dec-17 11:41 35.103468 -120.624701 210 19ft 0kts

Navigation Log

Ident Type
Flight plan parsing failed, navigation log unavailable